Time;durP1;ratioP1;P1;durP2;ratioP2;P2;SDS_P1;SDS_P2;PMS_P1;PMS_P2;Temp;Humidity;BMP_temperature;BMP_pressure;BME280_temperature;BME280_humidity;BME280_pressure;Samples;Min_cycle;Max_cycle;Signal;HPM_P1;HPM_P2
2022/05/11 00:01:43;;;;;;;14.90;4.93;;;;;;;;;;5030469;28;20092;-59
2022/05/11 00:04:10;;;;;;;12.53;4.53;;;;;;;;;;5030447;28;20079;-59
2022/05/11 00:06:37;;;;;;;7.60;4.00;;;;;;;;;;5029060;28;20092;-59
2022/05/11 00:09:03;;;;;;;10.60;4.10;;;;;;;;;;5030473;28;20042;-59
2022/05/11 00:11:30;;;;;;;10.67;4.03;;;;;;;;;;5031302;28;20106;-59
2022/05/11 00:13:56;;;;;;;6.63;4.07;;;;;;;;;;5030095;28;20053;-59
2022/05/11 00:16:23;;;;;;;7.33;4.00;;;;;;;;;;5030227;28;20041;-59
2022/05/11 00:18:49;;;;;;;9.20;4.37;;;;;;;;;;5034128;28;20167;-59
2022/05/11 00:21:16;;;;;;;8.83;4.00;;;;;;;;;;5049692;28;20045;-59
2022/05/11 00:23:42;;;;;;;9.73;4.37;;;;;;;;;;5050024;28;20037;-59
2022/05/11 00:26:08;;;;;;;8.67;4.23;;;;;;;;;;5049680;28;20099;-59
2022/05/11 00:28:34;;;;;;;11.13;4.73;;;;;;;;;;5049226;28;20118;-59
2022/05/11 00:31:00;;;;;;;11.33;4.57;;;;;;;;;;5049710;28;20056;-59
2022/05/11 00:33:28;;;;;;;6.90;4.50;;;;;;;;;;5049416;28;20076;-59
2022/05/11 00:35:54;;;;;;;8.83;4.30;;;;;;;;;;5049304;28;20084;-59
2022/05/11 00:38:21;;;;;;;7.47;4.20;;;;;;;;;;5049739;28;20080;-59
2022/05/11 00:40:50;;;;;;;6.27;3.70;;;;;;;;;;5048942;28;20044;-58
2022/05/11 00:43:25;;;;;;;10.17;4.30;;;;;;;;;;5049582;28;20045;-59
2022/05/11 00:45:51;;;;;;;9.67;4.30;;;;;;;;;;5049464;28;20446;-59
2022/05/11 00:51:05;;;;;;;8.43;4.53;;;;;;;;;;5048824;28;20347;-59
2022/05/11 00:53:33;;;;;;;6.60;4.40;;;;;;;;;;5049094;28;20052;-59
2022/05/11 00:56:00;;;;;;;10.03;4.50;;;;;;;;;;5048268;28;20045;-59
2022/05/11 00:58:37;;;;;;;9.43;4.50;;;;;;;;;;5049099;28;20140;-59
2022/05/11 01:01:03;;;;;;;10.30;5.13;;;;;;;;;;5034645;28;20522;-59
2022/05/11 01:03:32;;;;;;;9.10;4.63;;;;;;;;;;5029356;28;20132;-59
2022/05/11 01:05:59;;;;;;;14.23;5.63;;;;;;;;;;5028973;28;20033;-59
2022/05/11 01:08:27;;;;;;;11.43;4.40;;;;;;;;;;5046181;28;20052;-59
2022/05/11 01:10:53;;;;;;;13.23;4.50;;;;;;;;;;5049316;28;20080;-59
2022/05/11 01:13:20;;;;;;;10.23;4.70;;;;;;;;;;5049077;28;20076;-59
2022/05/11 01:15:47;;;;;;;11.33;5.80;;;;;;;;;;5048807;28;20052;-59
2022/05/11 01:18:14;;;;;;;10.70;4.83;;;;;;;;;;5048977;28;20079;-59
2022/05/11 01:20:40;;;;;;;8.77;5.13;;;;;;;;;;5049085;28;20049;-59
2022/05/11 01:23:24;;;;;;;7.97;4.80;;;;;;;;;;5048605;28;20049;-59
2022/05/11 01:25:50;;;;;;;7.33;4.10;;;;;;;;;;5048690;28;20037;-59
2022/05/11 01:28:18;;;;;;;10.27;4.80;;;;;;;;;;5048403;28;20049;-59
2022/05/11 01:31:03;;;;;;;9.57;4.57;;;;;;;;;;5048635;28;20059;-59
2022/05/11 01:33:29;;;;;;;11.53;6.17;;;;;;;;;;5029255;28;20064;-59
2022/05/11 01:36:16;;;;;;;10.00;4.93;;;;;;;;;;5029015;28;20049;-59
2022/05/11 01:38:43;;;;;;;7.50;5.33;;;;;;;;;;5014966;28;20050;-59
2022/05/11 01:41:12;;;;;;;9.30;5.10;;;;;;;;;;5028534;28;20050;-59
2022/05/11 01:43:39;;;;;;;8.33;4.83;;;;;;;;;;5028637;28;20487;-60
2022/05/11 01:46:05;;;;;;;9.53;5.27;;;;;;;;;;5028849;28;20053;-59
2022/05/11 01:48:31;;;;;;;10.47;5.40;;;;;;;;;;5028760;28;20500;-59
2022/05/11 01:50:58;;;;;;;7.37;5.13;;;;;;;;;;5028539;28;20050;-60
2022/05/11 01:53:24;;;;;;;8.37;5.00;;;;;;;;;;5029579;28;20128;-59
2022/05/11 01:55:50;;;;;;;9.60;4.67;;;;;;;;;;5027826;28;20046;-59
2022/05/11 01:58:17;;;;;;;9.83;5.07;;;;;;;;;;5028969;28;20049;-59
2022/05/11 02:00:44;;;;;;;10.43;5.67;;;;;;;;;;5028534;28;20045;-59
2022/05/11 02:03:10;;;;;;;13.53;5.30;;;;;;;;;;5045664;28;20068;-59
2022/05/11 02:08:21;;;;;;;10.07;5.40;;;;;;;;;;5048363;28;20053;-59
2022/05/11 02:10:47;;;;;;;9.90;4.77;;;;;;;;;;5048116;28;20056;-59
2022/05/11 02:13:13;;;;;;;9.50;5.13;;;;;;;;;;5048236;28;20041;-59
2022/05/11 02:15:40;;;;;;;9.40;4.87;;;;;;;;;;5048526;28;20525;-59
2022/05/11 02:18:06;;;;;;;9.37;4.70;;;;;;;;;;5048456;28;20049;-59
2022/05/11 02:20:33;;;;;;;6.80;4.53;;;;;;;;;;5048231;28;20092;-59
2022/05/11 02:22:59;;;;;;;6.97;3.60;;;;;;;;;;5048237;28;20064;-59
2022/05/11 02:25:25;;;;;;;6.73;4.30;;;;;;;;;;5047699;28;20037;-59
2022/05/11 02:27:52;;;;;;;9.10;4.60;;;;;;;;;;5048464;28;20075;-59
2022/05/11 02:30:21;;;;;;;10.73;5.43;;;;;;;;;;5037240;28;20144;-59
2022/05/11 02:32:47;;;;;;;11.37;5.00;;;;;;;;;;5032162;28;20053;-59
2022/05/11 02:35:13;;;;;;;9.90;5.13;;;;;;;;;;5031660;28;20107;-59
2022/05/11 02:37:40;;;;;;;8.53;4.90;;;;;;;;;;5031907;28;20423;-59
2022/05/11 02:40:06;;;;;;;11.93;4.60;;;;;;;;;;5031536;28;20075;-59
2022/05/11 02:42:32;;;;;;;7.10;4.60;;;;;;;;;;5032065;28;20045;-59
2022/05/11 02:44:58;;;;;;;9.77;4.50;;;;;;;;;;5047951;28;20419;-59
2022/05/11 02:47:24;;;;;;;8.30;4.43;;;;;;;;;;5051238;28;20435;-59
2022/05/11 02:49:51;;;;;;;9.47;4.67;;;;;;;;;;5051464;28;20095;-59
2022/05/11 02:52:17;;;;;;;8.33;4.27;;;;;;;;;;5051475;28;20486;-59
2022/05/11 02:54:46;;;;;;;10.13;4.70;;;;;;;;;;5051641;28;20041;-59
2022/05/11 02:57:13;;;;;;;9.17;4.50;;;;;;;;;;5050169;28;20041;-60
2022/05/11 02:59:39;;;;;;;7.83;4.43;;;;;;;;;;5051744;28;20457;-59
2022/05/11 03:02:05;;;;;;;8.37;5.10;;;;;;;;;;5046288;28;20041;-60
2022/05/11 03:04:31;;;;;;;8.63;4.43;;;;;;;;;;5041634;28;20060;-60
2022/05/11 03:06:57;;;;;;;10.10;4.73;;;;;;;;;;5038283;28;20128;-60
2022/05/11 03:09:23;;;;;;;9.30;4.77;;;;;;;;;;5039874;28;20074;-60
2022/05/11 03:11:49;;;;;;;10.63;5.17;;;;;;;;;;5041028;28;20046;-60
2022/05/11 03:14:15;;;;;;;10.40;4.80;;;;;;;;;;5039257;28;20049;-60
2022/05/11 03:16:41;;;;;;;10.97;4.57;;;;;;;;;;5040004;28;20052;-60
2022/05/11 03:19:08;;;;;;;12.00;4.67;;;;;;;;;;5040779;28;20055;-60
2022/05/11 03:21:34;;;;;;;7.53;4.20;;;;;;;;;;5038639;28;20294;-59
2022/05/11 03:24:00;;;;;;;9.03;4.30;;;;;;;;;;5039885;28;20083;-59
2022/05/11 03:26:27;;;;;;;10.07;4.40;;;;;;;;;;5038926;28;20075;-60
2022/05/11 03:28:53;;;;;;;11.67;4.80;;;;;;;;;;5037329;28;20069;-60
2022/05/11 03:31:19;;;;;;;8.23;4.33;;;;;;;;;;5039329;28;20060;-59
2022/05/11 03:36:31;;;;;;;10.87;4.40;;;;;;;;;;5041615;28;20041;-60
2022/05/11 03:38:57;;;;;;;9.10;4.73;;;;;;;;;;5039614;28;20051;-60
2022/05/11 03:41:23;;;;;;;6.73;5.00;;;;;;;;;;5030037;28;20045;-60
2022/05/11 03:43:49;;;;;;;9.13;4.30;;;;;;;;;;5028456;28;20077;-59
2022/05/11 03:46:15;;;;;;;9.40;4.37;;;;;;;;;;5030753;28;20080;-59
2022/05/11 03:48:42;;;;;;;12.63;5.00;;;;;;;;;;5048124;28;20045;-59
2022/05/11 03:51:08;;;;;;;10.03;4.60;;;;;;;;;;5050518;28;20056;-59
2022/05/11 03:53:34;;;;;;;8.87;4.53;;;;;;;;;;5049545;28;20102;-59
2022/05/11 03:56:00;;;;;;;9.00;4.80;;;;;;;;;;5049515;28;20041;-60
2022/05/11 03:58:26;;;;;;;12.73;4.93;;;;;;;;;;5050498;28;20049;-59
2022/05/11 04:00:53;;;;;;;9.67;5.10;;;;;;;;;;5050057;28;20133;-59
2022/05/11 04:03:19;;;;;;;8.33;4.50;;;;;;;;;;5048751;28;20479;-59
2022/05/11 04:05:45;;;;;;;9.73;4.27;;;;;;;;;;5050018;28;20132;-59
2022/05/11 04:08:11;;;;;;;10.83;4.43;;;;;;;;;;5049609;28;20076;-59
2022/05/11 04:10:37;;;;;;;12.83;4.53;;;;;;;;;;5049808;28;20094;-59
2022/05/11 04:13:04;;;;;;;9.53;4.70;;;;;;;;;;5045374;28;20037;-59
2022/05/11 04:15:30;;;;;;;11.43;6.10;;;;;;;;;;5049561;28;20045;-59
2022/05/11 04:17:56;;;;;;;12.63;5.90;;;;;;;;;;5049617;28;20045;-59
2022/05/11 04:20:22;;;;;;;10.93;5.30;;;;;;;;;;5049463;28;20048;-59
2022/05/11 04:22:48;;;;;;;12.80;4.43;;;;;;;;;;5048569;28;20041;-60
2022/05/11 04:25:16;;;;;;;12.90;5.03;;;;;;;;;;5049285;28;20491;-59
2022/05/11 04:27:45;;;;;;;11.93;4.73;;;;;;;;;;5049069;28;20041;-59
2022/05/11 04:30:12;;;;;;;7.97;4.83;;;;;;;;;;5047818;28;20053;-59
2022/05/11 04:32:38;;;;;;;8.10;4.60;;;;;;;;;;5049036;28;20045;-60
2022/05/11 04:35:05;;;;;;;10.60;5.27;;;;;;;;;;5049069;28;20506;-59
2022/05/11 04:37:31;;;;;;;9.77;5.10;;;;;;;;;;5049267;28;20051;-59
2022/05/11 04:39:57;;;;;;;12.83;5.23;;;;;;;;;;5048803;28;20049;-59
2022/05/11 04:42:23;;;;;;;12.57;5.13;;;;;;;;;;5038952;28;20053;-59
2022/05/11 04:44:49;;;;;;;8.20;4.50;;;;;;;;;;5029624;28;20042;-59
2022/05/11 04:47:19;;;;;;;9.47;5.10;;;;;;;;;;5029126;28;20056;-59
2022/05/11 04:49:45;;;;;;;11.13;4.50;;;;;;;;;;5032465;28;20048;-59
2022/05/11 04:52:16;;;;;;;10.50;5.60;;;;;;;;;;5048352;28;20488;-60
2022/05/11 04:54:43;;;;;;;10.80;5.87;;;;;;;;;;5048755;28;20090;-59
2022/05/11 04:57:10;;;;;;;13.80;5.27;;;;;;;;;;5048760;28;20049;-59
2022/05/11 04:59:37;;;;;;;9.03;5.53;;;;;;;;;;5048835;28;20057;-60
2022/05/11 05:02:04;;;;;;;9.50;5.30;;;;;;;;;;5048826;28;20056;-60
2022/05/11 05:04:31;;;;;;;10.47;5.57;;;;;;;;;;5047020;28;20932;-60
2022/05/11 05:06:57;;;;;;;11.07;5.50;;;;;;;;;;5046367;28;20041;-60
2022/05/11 05:09:23;;;;;;;13.73;6.50;;;;;;;;;;5049129;28;20053;-60
2022/05/11 05:11:49;;;;;;;14.43;6.20;;;;;;;;;;5048964;28;20309;-60
2022/05/11 05:14:15;;;;;;;10.20;5.47;;;;;;;;;;5048807;28;20078;-60
2022/05/11 05:16:42;;;;;;;9.60;5.90;;;;;;;;;;5048274;28;20041;-60
2022/05/11 05:19:09;;;;;;;19.97;5.50;;;;;;;;;;5048143;28;20105;-60
2022/05/11 05:21:35;;;;;;;10.13;5.20;;;;;;;;;;5047707;28;20045;-60
2022/05/11 05:24:01;;;;;;;12.23;5.17;;;;;;;;;;5048630;28;20047;-60
2022/05/11 05:26:27;;;;;;;8.30;4.90;;;;;;;;;;5042360;28;20056;-60
2022/05/11 05:31:38;;;;;;;16.70;5.83;;;;;;;;;;5028492;28;20053;-60
2022/05/11 05:34:05;;;;;;;10.87;5.00;;;;;;;;;;5028265;28;20054;-60
2022/05/11 05:36:32;;;;;;;11.23;5.10;;;;;;;;;;5028525;28;20069;-60
2022/05/11 05:38:58;;;;;;;9.47;4.53;;;;;;;;;;5028425;28;20045;-60
2022/05/11 05:41:25;;;;;;;8.20;4.73;;;;;;;;;;5027687;28;20045;-60
2022/05/11 05:43:51;;;;;;;12.17;5.20;;;;;;;;;;5039093;28;20045;-60
2022/05/11 05:46:17;;;;;;;8.53;4.57;;;;;;;;;;5046543;28;20055;-60
2022/05/11 05:48:43;;;;;;;11.07;4.87;;;;;;;;;;5044579;28;20045;-60
2022/05/11 05:51:11;;;;;;;11.20;4.87;;;;;;;;;;5033307;28;20033;-61
2022/05/11 05:53:37;;;;;;;8.67;4.27;;;;;;;;;;5035831;28;20602;-60
2022/05/11 05:56:03;;;;;;;8.63;4.10;;;;;;;;;;5039764;28;20042;-60
2022/05/11 05:58:30;;;;;;;13.73;5.80;;;;;;;;;;5059959;28;20047;-60
2022/05/11 06:00:56;;;;;;;9.80;4.87;;;;;;;;;;5042137;28;20492;-59
2022/05/11 06:03:23;;;;;;;9.03;4.83;;;;;;;;;;5047183;28;20068;-59
2022/05/11 06:05:49;;;;;;;10.47;4.10;;;;;;;;;;5069802;28;20040;-60
2022/05/11 06:08:16;;;;;;;9.93;3.70;;;;;;;;;;5052178;28;20047;-60
2022/05/11 06:10:42;;;;;;;8.80;4.33;;;;;;;;;;5046320;28;20061;-60
2022/05/11 06:13:08;;;;;;;9.77;4.23;;;;;;;;;;5039015;28;20495;-60
2022/05/11 06:15:35;;;;;;;9.37;3.67;;;;;;;;;;5048611;28;20049;-60
2022/05/11 06:18:01;;;;;;;12.83;4.33;;;;;;;;;;5044136;28;20195;-60
2022/05/11 06:20:27;;;;;;;7.30;3.57;;;;;;;;;;5043803;28;20049;-59
2022/05/11 06:22:53;;;;;;;7.90;3.40;;;;;;;;;;5036676;28;20048;-60
2022/05/11 06:25:20;;;;;;;9.13;3.73;;;;;;;;;;5040055;28;20053;-60
2022/05/11 06:27:46;;;;;;;8.93;3.37;;;;;;;;;;5052008;28;20087;-60
2022/05/11 06:30:13;;;;;;;7.90;2.30;;;;;;;;;;5042865;28;20053;-60
2022/05/11 06:32:39;;;;;;;8.40;2.67;;;;;;;;;;5050623;28;20380;-60
2022/05/11 06:35:05;;;;;;;7.73;2.73;;;;;;;;;;5060131;28;20048;-60
2022/05/11 06:37:31;;;;;;;7.00;2.23;;;;;;;;;;5049546;28;20517;-60
2022/05/11 06:39:58;;;;;;;10.93;2.77;;;;;;;;;;5058962;28;20525;-59
2022/05/11 06:42:24;;;;;;;8.53;2.20;;;;;;;;;;5069343;28;20520;-59
2022/05/11 06:44:51;;;;;;;6.80;2.17;;;;;;;;;;5061227;28;20041;-60
2022/05/11 06:47:17;;;;;;;5.93;2.13;;;;;;;;;;5067535;28;20552;-60
2022/05/11 06:49:44;;;;;;;10.87;2.47;;;;;;;;;;5049720;28;20111;-60
2022/05/11 06:52:10;;;;;;;6.83;2.30;;;;;;;;;;5047066;28;20041;-59
2022/05/11 07:00:07;;;;;;;6.57;2.23;;;;;;;;;;5059590;28;20053;-60
2022/05/11 07:02:34;;;;;;;6.70;2.80;;;;;;;;;;5045709;28;20038;-60
2022/05/11 07:05:00;;;;;;;7.67;2.00;;;;;;;;;;5035021;28;20083;-59
2022/05/11 07:07:26;;;;;;;8.80;2.20;;;;;;;;;;5046504;28;20053;-59
2022/05/11 07:09:52;;;;;;;5.83;1.70;;;;;;;;;;5041779;28;20041;-60
2022/05/11 07:12:20;;;;;;;8.23;2.13;;;;;;;;;;5064635;28;20474;-59
2022/05/11 07:14:47;;;;;;;5.53;1.73;;;;;;;;;;5047573;28;20132;-59
2022/05/11 07:17:22;;;;;;;7.63;2.10;;;;;;;;;;5057778;28;20072;-59
2022/05/11 07:19:48;;;;;;;8.17;2.40;;;;;;;;;;5038462;28;20041;-59
2022/05/11 07:22:15;;;;;;;10.63;1.83;;;;;;;;;;5049342;28;20037;-59
2022/05/11 07:24:43;;;;;;;6.67;1.70;;;;;;;;;;5047180;28;20098;-59
2022/05/11 07:27:09;;;;;;;9.70;2.23;;;;;;;;;;5051161;28;20045;-59
2022/05/11 07:29:35;;;;;;;6.40;1.53;;;;;;;;;;5049867;28;20503;-59
2022/05/11 07:32:02;;;;;;;7.67;1.73;;;;;;;;;;5049331;28;20053;-59
2022/05/11 07:34:28;;;;;;;10.27;1.73;;;;;;;;;;5045842;28;20048;-59
2022/05/11 07:36:55;;;;;;;9.57;1.90;;;;;;;;;;5037444;28;20130;-59
2022/05/11 07:39:23;;;;;;;6.23;2.27;;;;;;;;;;5048512;28;20698;-59
2022/05/11 07:41:49;;;;;;;8.70;1.70;;;;;;;;;;5040864;28;20411;-59
2022/05/11 07:44:15;;;;;;;10.47;2.07;;;;;;;;;;5042500;28;20037;-59
2022/05/11 07:46:42;;;;;;;8.73;1.90;;;;;;;;;;5070200;28;20059;-59
2022/05/11 07:49:09;;;;;;;6.27;1.60;;;;;;;;;;5050070;28;20406;-60
2022/05/11 07:51:36;;;;;;;8.50;2.13;;;;;;;;;;5056897;28;20422;-59
2022/05/11 07:54:02;;;;;;;6.83;1.40;;;;;;;;;;5066127;28;20053;-60
2022/05/11 08:01:58;;;;;;;7.03;1.63;;;;;;;;;;5048086;28;20049;-59
2022/05/11 08:04:24;;;;;;;8.40;1.77;;;;;;;;;;5056421;28;20051;-60
2022/05/11 08:06:50;;;;;;;10.30;1.80;;;;;;;;;;5048010;28;20515;-60
2022/05/11 08:09:16;;;;;;;10.50;2.20;;;;;;;;;;5038574;28;20033;-59
2022/05/11 08:11:42;;;;;;;5.97;1.30;;;;;;;;;;5064846;28;20079;-59
2022/05/11 08:14:08;;;;;;;7.13;1.67;;;;;;;;;;5055584;28;20094;-59
2022/05/11 08:16:35;;;;;;;9.37;1.70;;;;;;;;;;5045486;28;20045;-60
2022/05/11 08:19:01;;;;;;;8.20;1.83;;;;;;;;;;5038594;28;20050;-59
2022/05/11 08:21:27;;;;;;;7.40;1.90;;;;;;;;;;5048934;28;20049;-59
2022/05/11 08:23:53;;;;;;;7.83;1.40;;;;;;;;;;5062762;28;20473;-60
2022/05/11 08:26:19;;;;;;;5.83;1.40;;;;;;;;;;5044284;28;20041;-60
2022/05/11 08:28:45;;;;;;;9.90;1.97;;;;;;;;;;5036919;28;20590;-59
2022/05/11 08:33:56;;;;;;;10.27;1.83;;;;;;;;;;5055264;28;20052;-59
2022/05/11 08:36:24;;;;;;;8.53;1.67;;;;;;;;;;5047901;28;20045;-60
2022/05/11 08:38:55;;;;;;;5.80;1.47;;;;;;;;;;5049383;28;20969;-60
2022/05/11 08:41:30;;;;;;;6.47;1.57;;;;;;;;;;5048235;28;20045;-60
2022/05/11 08:43:59;;;;;;;10.07;1.87;;;;;;;;;;5069207;28;20053;-59
2022/05/11 08:46:30;;;;;;;7.33;1.60;;;;;;;;;;5039216;28;20081;-60
2022/05/11 08:49:12;;;;;;;7.30;1.60;;;;;;;;;;5041122;28;20052;-60
2022/05/11 08:51:47;;;;;;;7.40;1.87;;;;;;;;;;5046438;28;20058;-60
2022/05/11 08:54:13;;;;;;;7.20;1.60;;;;;;;;;;5047422;28;20155;-60
2022/05/11 08:56:40;;;;;;;8.27;1.50;;;;;;;;;;5048319;28;20536;-60
2022/05/11 08:59:07;;;;;;;8.40;1.90;;;;;;;;;;5041774;28;20041;-60
2022/05/11 09:01:46;;;;;;;6.10;1.53;;;;;;;;;;5066254;28;20048;-60
2022/05/11 09:04:13;;;;;;;11.90;2.97;;;;;;;;;;5054665;28;20037;-60
2022/05/11 09:06:43;;;;;;;10.00;1.73;;;;;;;;;;5033569;28;20033;-58
2022/05/11 09:09:10;;;;;;;8.57;1.83;;;;;;;;;;5049596;28;20045;-58
2022/05/11 09:11:41;;;;;;;6.03;2.00;;;;;;;;;;5045191;28;20675;-57
2022/05/11 09:14:08;;;;;;;7.83;1.63;;;;;;;;;;5047019;28;20056;-60
2022/05/11 09:16:39;;;;;;;8.60;1.50;;;;;;;;;;5067798;28;20396;-61
2022/05/11 09:19:26;;;;;;;7.23;1.57;;;;;;;;;;5048509;28;20045;-60
2022/05/11 09:21:54;;;;;;;6.37;2.20;;;;;;;;;;5048016;28;20535;-60
2022/05/11 09:24:23;;;;;;;7.03;1.33;;;;;;;;;;5036888;28;20573;-60
2022/05/11 09:27:01;;;;;;;5.90;2.00;;;;;;;;;;5049358;28;20131;-60
2022/05/11 09:29:32;;;;;;;9.27;1.50;;;;;;;;;;5068275;28;20055;-60
2022/05/11 09:32:19;;;;;;;6.50;1.40;;;;;;;;;;5066919;28;20510;-60
2022/05/11 09:34:45;;;;;;;5.80;1.10;;;;;;;;;;5057109;28;20049;-60
2022/05/11 09:37:26;;;;;;;6.20;1.30;;;;;;;;;;5044934;28;20047;-60
2022/05/11 09:40:02;;;;;;;5.50;1.43;;;;;;;;;;5037720;28;20095;-60
2022/05/11 09:42:30;;;;;;;5.40;1.60;;;;;;;;;;5045967;28;20084;-60
2022/05/11 09:44:56;;;;;;;6.93;1.90;;;;;;;;;;5047465;28;20047;-60
2022/05/11 09:47:22;;;;;;;7.50;1.77;;;;;;;;;;5046617;28;20080;-60
2022/05/11 09:49:49;;;;;;;6.23;1.37;;;;;;;;;;5045897;28;20084;-60
2022/05/11 09:52:27;;;;;;;4.60;1.00;;;;;;;;;;5046782;28;20037;-60
2022/05/11 09:54:53;;;;;;;7.00;1.67;;;;;;;;;;5051649;28;20046;-60
2022/05/11 09:57:26;;;;;;;5.93;1.30;;;;;;;;;;5048808;28;20049;-60
2022/05/11 09:59:56;;;;;;;6.80;1.20;;;;;;;;;;5056469;28;20061;-60
2022/05/11 10:02:30;;;;;;;4.30;1.00;;;;;;;;;;5046618;28;20043;-61
2022/05/11 10:05:10;;;;;;;5.37;1.17;;;;;;;;;;5053477;28;20056;-60
2022/05/11 10:07:37;;;;;;;4.68;1.67;;;;;;;;;;5042335;28;20052;-60
2022/05/11 10:10:12;;;;;;;3.37;1.00;;;;;;;;;;5047524;28;20504;-60
2022/05/11 10:12:40;;;;;;;4.77;0.80;;;;;;;;;;5067984;28;20041;-60
2022/05/11 10:24:05;;;;;;;7.80;1.58;;;;;;;;;;5065692;28;20127;-60
2022/05/11 10:26:37;;;;;;;3.55;1.13;;;;;;;;;;5066831;28;20044;-60
2022/05/11 10:29:29;;;;;;;4.78;1.15;;;;;;;;;;5059966;28;20036;-60
2022/05/11 10:32:01;;;;;;;3.65;1.23;;;;;;;;;;5017039;28;20059;-60
2022/05/11 10:34:31;;;;;;;3.35;0.88;;;;;;;;;;5044904;28;20048;-60
2022/05/11 10:37:00;;;;;;;6.03;0.93;;;;;;;;;;5062788;28;20106;-60
2022/05/11 10:39:36;;;;;;;5.35;1.40;;;;;;;;;;5053171;28;20044;-60
2022/05/11 10:42:21;;;;;;;2.97;1.02;;;;;;;;;;5047002;28;20053;-61
2022/05/11 10:45:05;;;;;;;7.90;1.27;;;;;;;;;;5046902;28;20072;-58
2022/05/11 10:47:41;;;;;;;5.32;1.17;;;;;;;;;;5047857;28;20138;-61
2022/05/11 10:50:17;;;;;;;2.65;1.20;;;;;;;;;;5049045;28;20056;-61
2022/05/11 10:53:02;;;;;;;4.57;1.27;;;;;;;;;;5070562;28;20055;-60
2022/05/11 10:55:52;;;;;;;5.88;1.38;;;;;;;;;;5049395;28;20457;-61
2022/05/11 10:58:18;;;;;;;5.38;1.33;;;;;;;;;;5050632;28;20538;-61
2022/05/11 11:00:46;;;;;;;3.97;1.35;;;;;;;;;;5050104;28;20056;-61
2022/05/11 11:03:26;;;;;;;4.75;1.20;;;;;;;;;;5052063;28;20941;-61
2022/05/11 11:09:30;;;;;;;6.28;1.50;;;;;;;;;;5036809;28;20087;-61
2022/05/11 11:12:04;;;;;;;4.93;1.70;;;;;;;;;;5017390;28;20053;-61
2022/05/11 11:14:32;;;;;;;6.55;1.55;;;;;;;;;;5049910;28;20052;-60
2022/05/11 11:16:59;;;;;;;8.23;1.70;;;;;;;;;;5059214;28;20045;-61
2022/05/11 11:19:25;;;;;;;5.00;1.50;;;;;;;;;;5060687;28;20057;-61
2022/05/11 11:21:51;;;;;;;7.28;1.80;;;;;;;;;;5051608;28;20084;-60
2022/05/11 11:24:24;;;;;;;5.65;1.67;;;;;;;;;;5036090;28;20147;-61
2022/05/11 11:26:52;;;;;;;7.15;1.60;;;;;;;;;;5060321;28;20041;-61
2022/05/11 11:29:22;;;;;;;5.13;1.48;;;;;;;;;;5037268;28;20127;-61
2022/05/11 11:32:00;;;;;;;6.18;1.50;;;;;;;;;;5037369;28;20087;-60
2022/05/11 11:34:33;;;;;;;9.15;1.95;;;;;;;;;;5048755;28;20095;-61
2022/05/11 11:37:00;;;;;;;7.45;1.90;;;;;;;;;;5049631;28;20511;-61
2022/05/11 11:39:45;;;;;;;5.65;1.33;;;;;;;;;;5046172;28;20060;-61
2022/05/11 11:42:12;;;;;;;7.82;2.13;;;;;;;;;;5050898;28;20080;-58
2022/05/11 11:44:40;;;;;;;5.03;1.90;;;;;;;;;;5049009;28;20407;-58
2022/05/11 11:47:27;;;;;;;7.00;2.15;;;;;;;;;;5048909;28;20048;-58
2022/05/11 11:49:58;;;;;;;13.13;2.45;;;;;;;;;;5043012;28;20045;-58
2022/05/11 11:52:38;;;;;;;6.15;1.50;;;;;;;;;;5049541;28;20044;-58
2022/05/11 11:55:24;;;;;;;7.68;2.03;;;;;;;;;;5047308;28;20033;-58
2022/05/11 11:58:09;;;;;;;7.15;1.77;;;;;;;;;;5048387;28;20407;-58
2022/05/11 12:00:47;;;;;;;8.13;1.95;;;;;;;;;;5042889;28;20045;-58
2022/05/11 12:03:16;;;;;;;7.68;2.22;;;;;;;;;;5029938;28;20041;-58
2022/05/11 12:05:51;;;;;;;7.20;2.67;;;;;;;;;;5028177;28;20622;-58
2022/05/11 12:16:46;;;;;;;8.43;2.78;;;;;;;;;;5029215;28;20053;-58
2022/05/11 12:19:13;;;;;;;8.00;2.10;;;;;;;;;;5029145;28;20049;-58
2022/05/11 12:21:40;;;;;;;8.02;1.63;;;;;;;;;;5044713;28;20041;-58
2022/05/11 12:24:10;;;;;;;6.93;1.90;;;;;;;;;;5047386;28;20084;-58
2022/05/11 12:26:37;;;;;;;6.05;2.17;;;;;;;;;;5048149;28;20068;-58
2022/05/11 12:32:01;;;;;;;8.13;1.92;;;;;;;;;;5041506;28;20045;-58
2022/05/11 12:34:30;;;;;;;10.35;2.47;;;;;;;;;;5035837;28;20049;-59
2022/05/11 12:36:57;;;;;;;9.10;2.33;;;;;;;;;;5047997;28;20064;-59
2022/05/11 12:39:35;;;;;;;6.50;1.83;;;;;;;;;;5036065;28;20041;-61
2022/05/11 12:42:01;;;;;;;6.03;1.77;;;;;;;;;;5029539;28;20069;-59
2022/05/11 12:44:29;;;;;;;7.97;2.05;;;;;;;;;;5032872;28;20507;-58
2022/05/11 12:46:56;;;;;;;7.03;1.77;;;;;;;;;;5049348;28;20057;-58
2022/05/11 12:49:23;;;;;;;7.35;1.65;;;;;;;;;;5039154;28;20049;-59
2022/05/11 12:51:53;;;;;;;11.75;2.22;;;;;;;;;;5027895;28;20123;-58
2022/05/11 12:54:21;;;;;;;8.02;1.83;;;;;;;;;;5028731;28;20570;-58
2022/05/11 12:56:56;;;;;;;8.32;1.88;;;;;;;;;;5028484;28;20395;-59
2022/05/11 12:59:24;;;;;;;6.47;1.60;;;;;;;;;;5028992;28;20045;-59
2022/05/11 13:01:50;;;;;;;10.55;1.80;;;;;;;;;;5039884;28;20052;-58
2022/05/11 13:04:20;;;;;;;9.02;1.95;;;;;;;;;;5029687;28;20041;-59
2022/05/11 13:06:48;;;;;;;11.55;2.47;;;;;;;;;;5027863;28;20045;-58
2022/05/11 13:09:17;;;;;;;9.07;2.03;;;;;;;;;;5027936;28;20087;-59
2022/05/11 13:11:44;;;;;;;12.13;2.55;;;;;;;;;;5028787;28;20057;-58
2022/05/11 13:14:12;;;;;;;9.15;2.22;;;;;;;;;;5027868;28;20045;-59
2022/05/11 13:16:45;;;;;;;8.45;2.38;;;;;;;;;;5046076;28;20049;-58
2022/05/11 13:19:22;;;;;;;7.80;2.20;;;;;;;;;;5048700;28;20099;-58
2022/05/11 13:21:48;;;;;;;10.18;2.60;;;;;;;;;;5048169;28;20041;-58
2022/05/11 13:24:14;;;;;;;9.68;2.60;;;;;;;;;;5029417;28;20072;-58
2022/05/11 13:26:42;;;;;;;9.30;2.65;;;;;;;;;;5030716;28;20116;-58
2022/05/11 13:29:16;;;;;;;8.27;2.85;;;;;;;;;;5036253;28;20043;-59
2022/05/11 13:31:43;;;;;;;9.38;2.50;;;;;;;;;;5040609;28;20060;-58
2022/05/11 13:34:28;;;;;;;8.23;1.83;;;;;;;;;;5048718;28;20065;-58
2022/05/11 13:36:54;;;;;;;7.45;2.17;;;;;;;;;;5044192;28;20041;-58
2022/05/11 13:39:27;;;;;;;9.63;2.15;;;;;;;;;;5047052;28;20049;-58
2022/05/11 13:41:55;;;;;;;8.10;2.55;;;;;;;;;;5048821;28;20090;-58
2022/05/11 13:44:39;;;;;;;12.13;2.10;;;;;;;;;;5048879;28;20049;-58
2022/05/11 13:50:13;;;;;;;10.80;2.35;;;;;;;;;;5031875;28;20045;-59
2022/05/11 13:52:49;;;;;;;12.60;2.28;;;;;;;;;;5048172;28;20080;-58
2022/05/11 13:55:24;;;;;;;8.70;2.63;;;;;;;;;;5062214;28;20037;-58
2022/05/11 13:57:50;;;;;;;5.30;1.65;;;;;;;;;;5049068;28;20398;-58
2022/05/11 14:00:16;;;;;;;8.82;2.65;;;;;;;;;;5061268;28;20041;-58
2022/05/11 14:02:44;;;;;;;12.77;3.42;;;;;;;;;;5044276;28;20049;-58
2022/05/11 14:05:11;;;;;;;9.20;2.72;;;;;;;;;;5046157;28;20102;-58
2022/05/11 14:07:37;;;;;;;9.70;2.63;;;;;;;;;;5048417;28;20045;-58
2022/05/11 14:10:03;;;;;;;10.90;2.25;;;;;;;;;;5064451;28;20120;-58
2022/05/11 14:12:29;;;;;;;13.75;3.67;;;;;;;;;;5057875;28;20057;-58
2022/05/11 14:14:55;;;;;;;11.43;2.60;;;;;;;;;;5034908;28;20036;-58
2022/05/11 14:17:27;;;;;;;13.82;3.08;;;;;;;;;;5046803;28;20068;-58
2022/05/11 14:19:55;;;;;;;9.68;3.22;;;;;;;;;;5045868;28;20041;-58
2022/05/11 14:22:21;;;;;;;10.27;2.53;;;;;;;;;;5041659;28;20045;-58
2022/05/11 14:24:47;;;;;;;11.40;2.47;;;;;;;;;;5048559;28;20048;-59
2022/05/11 14:27:17;;;;;;;14.98;3.13;;;;;;;;;;5051508;28;20041;-58
2022/05/11 14:29:44;;;;;;;11.77;3.17;;;;;;;;;;5052458;28;20410;-58
2022/05/11 14:32:18;;;;;;;9.23;2.38;;;;;;;;;;5053465;28;20041;-59
2022/05/11 14:34:44;;;;;;;7.90;1.88;;;;;;;;;;5051834;28;20052;-58
2022/05/11 14:37:09;;;;;;;9.27;2.10;;;;;;;;;;5049700;28;20040;-58
2022/05/11 14:39:35;;;;;;;7.55;2.08;;;;;;;;;;5051729;28;20041;-58
2022/05/11 14:42:01;;;;;;;7.20;1.80;;;;;;;;;;5058922;28;20043;-58
2022/05/11 14:44:27;;;;;;;13.55;2.47;;;;;;;;;;5050518;28;20060;-58
2022/05/11 14:46:54;;;;;;;9.98;2.28;;;;;;;;;;5043341;28;20029;-58
2022/05/11 14:49:20;;;;;;;9.85;2.03;;;;;;;;;;5045944;28;20056;-58
2022/05/11 14:51:47;;;;;;;10.80;1.85;;;;;;;;;;5037802;28;20053;-58
2022/05/11 14:54:13;;;;;;;10.07;2.00;;;;;;;;;;5037770;28;20045;-58
2022/05/11 14:56:39;;;;;;;10.38;2.35;;;;;;;;;;5039072;28;20072;-58
2022/05/11 15:01:59;;;;;;;12.48;1.90;;;;;;;;;;5031062;28;20064;-58
2022/05/11 15:04:42;;;;;;;12.43;2.33;;;;;;;;;;5050896;28;20055;-58
2022/05/11 15:07:10;;;;;;;10.02;1.60;;;;;;;;;;5052172;28;20044;-58
2022/05/11 15:09:36;;;;;;;8.60;2.67;;;;;;;;;;5052208;28;20080;-58
2022/05/11 15:14:47;;;;;;;9.15;1.45;;;;;;;;;;5041219;28;20098;-58
2022/05/11 15:17:23;;;;;;;7.00;1.27;;;;;;;;;;5065020;28;20067;-58
2022/05/11 15:19:49;;;;;;;8.15;2.00;;;;;;;;;;5071761;28;20528;-58
2022/05/11 15:22:16;;;;;;;8.63;1.85;;;;;;;;;;5071344;28;20050;-58
2022/05/11 15:24:42;;;;;;;5.50;1.75;;;;;;;;;;5064012;28;20033;-58
2022/05/11 15:27:09;;;;;;;8.32;1.95;;;;;;;;;;5051892;28;20148;-58
2022/05/11 15:29:35;;;;;;;7.03;2.33;;;;;;;;;;5051712;28;20065;-59
2022/05/11 15:32:02;;;;;;;4.70;1.65;;;;;;;;;;5051603;28;20419;-58
2022/05/11 15:34:29;;;;;;;9.45;2.08;;;;;;;;;;5050390;28;20045;-58
2022/05/11 15:36:56;;;;;;;9.90;1.77;;;;;;;;;;5051296;28;20049;-58
2022/05/11 15:39:24;;;;;;;8.70;1.90;;;;;;;;;;5048635;28;20045;-58
2022/05/11 15:41:50;;;;;;;9.63;2.50;;;;;;;;;;5030572;28;20880;-58
2022/05/11 15:44:17;;;;;;;7.90;1.70;;;;;;;;;;5033953;28;20056;-60